Time;durP1;ratioP1;P1;durP2;ratioP2;P2;SDS_P1;SDS_P2;PMS_P1;PMS_P2;Temp;Humidity;BMP_temperature;BMP_pressure;BME280_temperature;BME280_humidity;BME280_pressure;Samples;Min_cycle;Max_cycle;Signal;HPM_P1;HPM_P2
2021/01/11 00:01:07;;;;;;;20.27;8.15;;;;;;;-3.28;84.03;97012.31;4972797;28;20198;-70
2021/01/11 00:03:37;;;;;;;18.80;9.00;;;;;;;-3.23;84.33;97007.19;4971935;28;20202;-69
2021/01/11 00:06:04;;;;;;;16.73;9.70;;;;;;;-3.21;84.55;97020.75;4970131;28;20209;-69
2021/01/11 00:08:31;;;;;;;20.60;10.77;;;;;;;-3.34;83.91;97029.25;4968037;28;20265;-70
2021/01/11 00:10:58;;;;;;;21.38;9.73;;;;;;;-3.40;84.20;97024.16;4971412;28;20245;-70
2021/01/11 00:13:25;;;;;;;22.92;10.20;;;;;;;-3.33;84.15;97020.78;4972836;28;20633;-70
2021/01/11 00:15:52;;;;;;;22.20;10.32;;;;;;;-3.24;83.75;97025.88;4964399;28;20743;-70
2021/01/11 00:18:19;;;;;;;21.83;10.00;;;;;;;-3.28;83.78;97034.34;4957670;28;20238;-70
2021/01/11 00:20:46;;;;;;;23.33;11.48;;;;;;;-3.47;83.60;97007.22;4965277;28;20222;-69
2021/01/11 00:23:13;;;;;;;18.05;9.50;;;;;;;-3.41;83.75;97027.56;4970716;28;20293;-70
2021/01/11 00:25:40;;;;;;;28.30;9.77;;;;;;;-3.47;83.88;97027.56;4970930;28;20319;-71
2021/01/11 00:28:06;;;;;;;18.13;9.65;;;;;;;-3.49;83.71;97019.97;4970507;28;20238;-69
2021/01/11 00:30:33;;;;;;;17.67;8.98;;;;;;;-3.57;84.58;97020.81;4966815;28;20599;-68
2021/01/11 00:33:00;;;;;;;22.60;9.88;;;;;;;-3.60;84.29;97021.66;4969400;28;20203;-69
2021/01/11 00:35:28;;;;;;;18.42;8.15;;;;;;;-3.60;84.82;97015.75;4970439;28;20320;-70
2021/01/11 00:37:56;;;;;;;20.85;8.93;;;;;;;-3.51;84.64;97026.75;4973243;28;20249;-68
2021/01/11 00:40:23;;;;;;;19.85;9.77;;;;;;;-3.43;84.83;97025.06;4971960;28;20426;-70
2021/01/11 00:42:50;;;;;;;22.02;9.93;;;;;;;-3.43;84.20;97019.97;4966910;28;20560;-70
2021/01/11 00:45:17;;;;;;;20.40;9.43;;;;;;;-3.42;84.65;97021.66;4965960;28;20252;-69
2021/01/11 00:47:44;;;;;;;17.20;8.73;;;;;;;-3.44;84.45;97019.97;4970845;28;20202;-69
2021/01/11 00:50:11;;;;;;;20.08;8.70;;;;;;;-3.58;84.74;97011.50;4965477;28;20222;-70
2021/01/11 00:52:40;;;;;;;18.38;8.90;;;;;;;-3.62;84.23;97015.72;4969694;28;20206;-71
2021/01/11 00:55:08;;;;;;;20.83;9.90;;;;;;;-3.59;84.23;97017.44;4969418;28;20280;-68
2021/01/11 00:57:38;;;;;;;22.23;9.50;;;;;;;-3.67;84.72;97019.13;4970520;28;20627;-69
2021/01/11 01:00:08;;;;;;;19.45;9.00;;;;;;;-3.69;84.62;97020.81;4970230;28;20312;-69
2021/01/11 01:02:35;;;;;;;17.95;9.25;;;;;;;-3.72;83.95;97015.75;4972203;28;20229;-71
2021/01/11 01:05:03;;;;;;;16.92;8.57;;;;;;;-3.91;83.98;97019.13;4974278;28;20696;-69
2021/01/11 01:07:30;;;;;;;16.95;8.68;;;;;;;-3.92;83.70;97017.44;4965707;28;20278;-70
2021/01/11 01:10:06;;;;;;;22.98;8.25;;;;;;;-3.99;84.03;97014.03;4972760;28;20620;-71
2021/01/11 01:12:33;;;;;;;19.05;9.25;;;;;;;-4.06;84.76;97007.25;4966039;28;20542;-68
2021/01/11 01:15:00;;;;;;;17.67;8.48;;;;;;;-4.00;85.41;96998.78;4967774;28;20320;-68
2021/01/11 01:17:27;;;;;;;19.15;8.57;;;;;;;-3.89;85.37;97010.66;4963287;28;20628;-69
2021/01/11 01:19:54;;;;;;;18.65;9.50;;;;;;;-3.86;85.17;97014.88;4971450;28;20716;-70
2021/01/11 01:22:21;;;;;;;17.45;8.80;;;;;;;-3.87;85.33;97015.75;4964944;28;20193;-69
2021/01/11 01:24:47;;;;;;;17.65;8.25;;;;;;;-3.82;85.51;97019.97;4970871;28;20217;-70
2021/01/11 01:27:15;;;;;;;15.80;7.88;;;;;;;-3.78;85.03;97025.91;4971127;28;20543;-69
2021/01/11 01:29:42;;;;;;;17.13;8.35;;;;;;;-3.73;84.68;97019.13;4968930;28;20669;-69
2021/01/11 01:32:09;;;;;;;16.50;8.52;;;;;;;-3.80;84.95;97027.59;4970923;28;20201;-70
2021/01/11 01:34:36;;;;;;;18.88;9.25;;;;;;;-3.77;84.89;97032.69;4967573;28;20296;-69
2021/01/11 01:37:03;;;;;;;17.08;8.32;;;;;;;-3.79;84.79;97039.47;4968810;28;20233;-69
2021/01/11 01:39:29;;;;;;;17.95;8.88;;;;;;;-3.75;85.11;97038.63;4967051;28;20319;-69
2021/01/11 01:41:56;;;;;;;16.35;8.20;;;;;;;-3.75;85.00;97039.47;4969659;28;20194;-68
2021/01/11 01:44:24;;;;;;;15.82;7.80;;;;;;;-3.78;83.98;97048.78;4965123;28;20607;-68
2021/01/11 01:46:51;;;;;;;24.10;9.40;;;;;;;-3.88;84.00;97034.38;4969467;28;20293;-68
2021/01/11 01:49:19;;;;;;;19.48;8.35;;;;;;;-4.35;82.67;97037.69;4966997;28;20538;-68
2021/01/11 01:51:45;;;;;;;20.63;9.18;;;;;;;-4.40;83.35;97035.16;4955469;28;20720;-68
2021/01/11 01:54:12;;;;;;;22.08;9.77;;;;;;;-4.39;83.14;97029.22;4960259;28;20254;-68
2021/01/11 01:56:39;;;;;;;19.65;9.80;;;;;;;-4.26;83.33;97030.97;4966721;28;20270;-67
2021/01/11 01:59:08;;;;;;;21.77;9.20;;;;;;;-4.30;83.18;97024.16;4969279;28;20259;-68
2021/01/11 02:01:37;;;;;;;21.80;10.40;;;;;;;-4.28;83.89;97027.53;4960582;28;20384;-70
2021/01/11 02:04:04;;;;;;;13.00;6.63;;;;;;;-4.27;84.31;97024.19;4965562;28;20218;-69
2021/01/11 02:06:36;;;;;;;18.42;8.57;;;;;;;-4.20;84.76;97020.81;4967669;28;20479;-68
2021/01/11 02:09:07;;;;;;;18.13;8.20;;;;;;;-4.19;84.56;97022.50;4967838;28;20254;-69
2021/01/11 02:11:42;;;;;;;18.23;8.40;;;;;;;-4.13;84.52;97021.66;4965389;28;20256;-69
2021/01/11 02:14:20;;;;;;;23.25;9.07;;;;;;;-4.07;84.71;97022.50;4969012;28;20289;-69
2021/01/11 02:16:57;;;;;;;16.83;8.15;;;;;;;-4.33;84.03;97014.00;4965688;28;20265;-69
2021/01/11 02:19:53;;;;;;;21.55;9.70;;;;;;;-4.52;83.95;97012.25;4971016;28;20449;-69
2021/01/11 02:22:25;;;;;;;15.68;7.85;;;;;;;-4.47;83.72;97009.72;4971004;28;20468;-69
2021/01/11 02:25:25;;;;;;;19.67;8.90;;;;;;;-4.54;83.59;97006.34;4961334;28;20691;-70
2021/01/11 02:27:55;;;;;;;19.50;8.43;;;;;;;-4.53;83.05;97005.50;4955651;28;20673;-68
2021/01/11 02:30:35;;;;;;;16.92;8.30;;;;;;;-4.56;83.19;97005.50;4990970;28;20256;-70
2021/01/11 02:33:09;;;;;;;15.52;7.97;;;;;;;-4.57;82.77;97005.50;4985778;28;20197;-71
2021/01/11 02:36:08;;;;;;;23.13;9.40;;;;;;;-4.69;83.17;96992.75;4973390;28;20352;-70
2021/01/11 02:38:37;;;;;;;18.35;7.72;;;;;;;-4.79;83.72;96991.88;4970584;28;20319;-67
2021/01/11 02:41:04;;;;;;;20.15;9.27;;;;;;;-4.70;83.97;96991.94;4971824;28;20633;-68
2021/01/11 02:43:34;;;;;;;19.33;9.15;;;;;;;-4.61;83.29;96999.56;4974735;28;20649;-69
2021/01/11 02:46:02;;;;;;;19.83;9.32;;;;;;;-4.53;82.78;96994.47;4975884;28;20657;-70
2021/01/11 02:48:34;;;;;;;19.63;8.15;;;;;;;-4.60;83.42;96997.84;4969384;28;20689;-70
2021/01/11 02:51:13;;;;;;;26.45;10.43;;;;;;;-4.70;83.05;97007.16;4971337;28;20565;-69
2021/01/11 02:53:48;;;;;;;19.40;9.65;;;;;;;-4.68;82.64;97002.06;4968849;28;20206;-69
2021/01/11 02:56:26;;;;;;;16.23;8.63;;;;;;;-4.77;83.13;97005.44;4969874;28;20690;-68
2021/01/11 02:59:04;;;;;;;23.45;9.52;;;;;;;-4.83;83.04;97010.47;4968048;28;20261;-70
2021/01/11 03:01:38;;;;;;;18.30;8.35;;;;;;;-4.84;83.77;97011.34;4970267;28;20233;-69
2021/01/11 03:04:05;;;;;;;18.75;8.88;;;;;;;-4.80;83.32;97020.63;4972179;28;20691;-70
2021/01/11 03:06:32;;;;;;;21.25;8.73;;;;;;;-4.77;83.11;97015.59;4974190;28;20669;-70
2021/01/11 03:09:07;;;;;;;29.83;8.50;;;;;;;-4.88;82.71;97007.06;4969116;28;20218;-70
2021/01/11 03:11:35;;;;;;;17.35;8.50;;;;;;;-4.90;82.36;97018.91;4970367;28;20349;-69
2021/01/11 03:14:03;;;;;;;16.75;8.38;;;;;;;-4.98;82.96;97012.09;4966069;28;20712;-70
2021/01/11 03:16:30;;;;;;;22.80;8.80;;;;;;;-5.00;83.65;97014.66;4967795;28;20253;-70
2021/01/11 03:18:58;;;;;;;17.42;7.55;;;;;;;-5.02;84.07;97008.69;4975748;28;20731;-71
2021/01/11 03:21:27;;;;;;;18.80;7.85;;;;;;;-5.02;83.51;97006.16;4971940;28;20304;-69
2021/01/11 03:24:04;;;;;;;16.98;7.60;;;;;;;-4.88;84.10;97007.06;4969495;28;20635;-71
2021/01/11 03:26:30;;;;;;;19.30;8.20;;;;;;;-4.82;84.05;97004.56;4968561;28;20191;-69
2021/01/11 03:28:57;;;;;;;17.23;8.50;;;;;;;-4.81;83.03;97016.41;4971058;28;20219;-69
2021/01/11 03:31:25;;;;;;;19.20;8.43;;;;;;;-4.77;83.52;97015.59;4963426;28;20570;-70
2021/01/11 03:33:52;;;;;;;17.02;7.85;;;;;;;-4.74;82.94;97007.13;4971810;28;20229;-68
2021/01/11 03:36:19;;;;;;;17.63;7.68;;;;;;;-4.77;82.95;97000.34;4967913;28;20641;-68
2021/01/11 03:38:49;;;;;;;17.30;7.88;;;;;;;-4.89;81.88;97007.09;4962039;28;20573;-69
2021/01/11 03:41:16;;;;;;;18.88;8.65;;;;;;;-5.10;82.38;97009.53;4973556;28;20194;-69
2021/01/11 03:43:45;;;;;;;17.38;7.88;;;;;;;-5.22;81.55;97000.19;4967946;28;20217;-69
2021/01/11 03:46:13;;;;;;;15.75;7.05;;;;;;;-5.25;82.39;97000.16;4972644;28;20555;-68
2021/01/11 03:48:41;;;;;;;20.17;8.38;;;;;;;-5.22;82.42;96997.66;4968819;28;20217;-68
2021/01/11 03:51:08;;;;;;;20.27;8.55;;;;;;;-5.31;82.15;97000.09;4968960;28;20657;-68
2021/01/11 03:53:36;;;;;;;17.67;8.25;;;;;;;-5.17;82.41;97005.28;4970806;28;20753;-69
2021/01/11 03:56:04;;;;;;;22.60;9.48;;;;;;;-5.16;81.94;97000.19;4972946;28;20693;-69
2021/01/11 03:58:31;;;;;;;23.48;8.93;;;;;;;-5.06;81.94;97007.00;4971675;28;20198;-69
2021/01/11 04:00:59;;;;;;;17.10;7.13;;;;;;;-5.05;81.73;97016.31;4967324;28;20712;-68
2021/01/11 04:03:27;;;;;;;19.58;8.60;;;;;;;-5.15;81.93;97013.72;4969377;28;20206;-69
2021/01/11 04:05:54;;;;;;;18.77;8.75;;;;;;;-5.34;82.33;97015.31;4972736;28;20311;-68
2021/01/11 04:08:21;;;;;;;24.60;8.95;;;;;;;-5.34;82.21;97005.19;4973588;28;20198;-68
2021/01/11 04:10:50;;;;;;;22.52;8.13;;;;;;;-5.54;82.07;97000.84;4975092;28;20225;-69
2021/01/11 04:13:23;;;;;;;17.85;8.95;;;;;;;-5.78;82.94;96993.91;4969376;28;20298;-68
2021/01/11 04:15:50;;;;;;;21.00;9.60;;;;;;;-5.69;83.45;96998.22;4965316;28;20230;-68
2021/01/11 04:18:17;;;;;;;17.13;9.05;;;;;;;-5.58;83.84;97004.19;4973642;28;20277;-69
2021/01/11 04:20:44;;;;;;;18.92;9.10;;;;;;;-5.55;82.72;97006.72;4967598;28;20727;-69
2021/01/11 04:23:12;;;;;;;23.58;8.77;;;;;;;-5.50;82.50;97008.47;4968652;28;20653;-69
2021/01/11 04:25:39;;;;;;;18.70;9.50;;;;;;;-5.48;82.50;97006.78;4968646;28;20536;-69
2021/01/11 04:28:07;;;;;;;19.50;9.77;;;;;;;-5.37;82.64;97022.06;4967390;28;20779;-69
2021/01/11 04:30:34;;;;;;;21.33;8.00;;;;;;;-5.42;82.51;97016.97;4971614;28;20792;-68
2021/01/11 04:33:01;;;;;;;19.90;9.85;;;;;;;-5.44;82.57;97022.84;4972341;28;20264;-69
2021/01/11 04:35:29;;;;;;;18.60;8.60;;;;;;;-5.46;82.98;97014.41;4962539;28;20271;-68
2021/01/11 04:37:57;;;;;;;18.52;8.13;;;;;;;-5.41;83.30;97018.66;4969155;28;20586;-70
2021/01/11 04:40:25;;;;;;;18.95;8.18;;;;;;;-5.38;83.22;97013.59;4971935;28;20233;-69
2021/01/11 04:42:56;;;;;;;19.20;9.25;;;;;;;-5.52;82.69;96994.91;4972422;28;20637;-69
2021/01/11 04:45:24;;;;;;;24.73;10.40;;;;;;;-5.43;82.58;97014.41;4957638;28;20754;-69
2021/01/11 04:47:53;;;;;;;24.45;9.52;;;;;;;-5.47;82.89;97013.53;4971667;28;20197;-68
2021/01/11 04:50:20;;;;;;;18.83;9.25;;;;;;;-5.39;82.08;97011.06;4966986;28;20822;-68
2021/01/11 04:52:47;;;;;;;19.30;9.70;;;;;;;-5.34;82.37;97010.25;4964134;28;20629;-66
2021/01/11 04:55:14;;;;;;;23.25;9.75;;;;;;;-5.25;82.81;97015.34;4971452;28;20253;-70
2021/01/11 04:57:53;;;;;;;22.35;10.38;;;;;;;-5.26;82.63;97013.66;4967558;28;20590;-68
2021/01/11 05:00:23;;;;;;;25.70;9.43;;;;;;;-5.29;81.92;97007.72;4966226;28;20226;-69
2021/01/11 05:02:59;;;;;;;22.40;10.85;;;;;;;-5.36;82.31;97011.06;4958314;28;20202;-68
2021/01/11 05:05:27;;;;;;;24.55;10.75;;;;;;;-5.43;83.09;97004.28;4970557;28;20229;-68
2021/01/11 05:07:54;;;;;;;27.88;10.65;;;;;;;-5.36;83.33;97006.88;4972139;28;20217;-68
2021/01/11 05:10:23;;;;;;;20.98;10.13;;;;;;;-5.32;82.69;96998.41;4966689;28;20666;-68
2021/01/11 05:12:58;;;;;;;18.52;9.55;;;;;;;-5.40;82.27;97006.84;4975264;28;20583;-68
2021/01/11 05:15:27;;;;;;;25.48;10.48;;;;;;;-5.45;82.84;96996.66;4964612;28;20840;-68
2021/01/11 05:17:56;;;;;;;26.40;9.80;;;;;;;-5.36;82.76;97003.47;4965188;28;20293;-68
2021/01/11 05:20:25;;;;;;;18.38;9.00;;;;;;;-5.38;82.05;97005.97;4969840;28;20252;-68
2021/01/11 05:22:53;;;;;;;23.70;10.70;;;;;;;-5.52;82.22;96989.00;4967289;28;20226;-68
2021/01/11 05:25:23;;;;;;;21.35;9.88;;;;;;;-5.51;82.54;97003.38;4954599;28;20292;-68
2021/01/11 05:28:08;;;;;;;19.08;10.30;;;;;;;-5.52;82.03;96999.97;4956504;28;20834;-68
2021/01/11 05:30:36;;;;;;;21.88;9.70;;;;;;;-5.51;81.82;96990.72;4961698;28;20321;-68
2021/01/11 05:33:05;;;;;;;24.10;10.07;;;;;;;-5.57;82.07;97006.72;4970174;28;20347;-71
2021/01/11 05:35:33;;;;;;;23.08;10.43;;;;;;;-5.59;81.60;97000.81;4964547;28;20292;-68
2021/01/11 05:38:01;;;;;;;26.63;12.10;;;;;;;-5.52;81.62;97010.13;4962646;28;20237;-68
2021/01/11 05:40:30;;;;;;;24.73;11.50;;;;;;;-5.49;81.75;97010.16;4966635;28;20232;-68
2021/01/11 05:42:58;;;;;;;23.75;11.40;;;;;;;-5.42;81.82;97011.03;4969286;28;20248;-68
2021/01/11 05:45:27;;;;;;;28.02;11.18;;;;;;;-5.46;80.65;97005.09;4970317;28;20660;-68
2021/01/11 05:48:04;;;;;;;25.90;11.20;;;;;;;-5.51;81.13;97010.97;4969712;28;20597;-68
2021/01/11 05:50:35;;;;;;;24.48;9.65;;;;;;;-5.53;81.36;97008.44;4971468;28;20566;-68
2021/01/11 05:53:15;;;;;;;29.45;12.80;;;;;;;-5.70;80.96;97012.56;4964745;28;20695;-68
2021/01/11 05:55:42;;;;;;;25.98;11.57;;;;;;;-5.82;81.40;97016.72;4969627;28;20228;-68
2021/01/11 05:58:10;;;;;;;23.15;10.75;;;;;;;-5.82;81.09;97015.03;4970559;28;20658;-67
2021/01/11 06:00:38;;;;;;;22.98;9.55;;;;;;;-5.85;81.26;97017.53;4957269;28;20614;-69
2021/01/11 06:03:13;;;;;;;19.42;9.60;;;;;;;-5.81;81.33;97013.34;4971352;28;20236;-68
2021/01/11 06:05:42;;;;;;;24.48;10.05;;;;;;;-5.75;81.82;97011.66;4975284;28;20749;-67
2021/01/11 06:08:10;;;;;;;23.85;10.52;;;;;;;-5.69;81.34;97011.72;4971782;28;20606;-68
2021/01/11 06:10:38;;;;;;;21.23;10.57;;;;;;;-5.68;82.34;97021.00;4969485;28;20620;-68
2021/01/11 06:13:08;;;;;;;22.42;9.85;;;;;;;-5.73;82.04;97004.94;4975080;28;20241;-68
2021/01/11 06:15:37;;;;;;;23.50;10.77;;;;;;;-5.80;82.40;97010.84;4967098;28;20240;-69
2021/01/11 06:18:08;;;;;;;19.08;9.32;;;;;;;-5.83;82.20;97008.25;4975984;28;20190;-68
2021/01/11 06:20:45;;;;;;;23.17;9.43;;;;;;;-5.86;81.91;97008.25;4972117;28;20600;-69
2021/01/11 06:23:25;;;;;;;23.65;10.27;;;;;;;-5.84;81.49;97011.63;4974087;28;20591;-69
2021/01/11 06:25:52;;;;;;;20.95;10.07;;;;;;;-5.82;82.00;97015.03;4965899;28;20324;-69
2021/01/11 06:28:33;;;;;;;26.63;9.02;;;;;;;-5.89;81.39;97008.22;4958652;28;20230;-69
2021/01/11 06:31:11;;;;;;;31.15;9.63;;;;;;;-5.91;82.12;97014.97;4974225;28;20291;-69
2021/01/11 06:33:40;;;;;;;25.60;9.10;;;;;;;-5.96;81.39;97008.16;4973369;28;20198;-68
2021/01/11 06:36:23;;;;;;;27.00;10.73;;;;;;;-5.94;81.25;97009.88;4976873;28;20639;-72
2021/01/11 06:38:52;;;;;;;25.88;11.02;;;;;;;-5.92;81.01;97013.25;4967312;28;20190;-70
2021/01/11 06:41:20;;;;;;;34.13;11.63;;;;;;;-6.04;81.24;97008.09;4969780;28;20660;-70
2021/01/11 06:43:49;;;;;;;25.08;9.00;;;;;;;-6.14;81.66;97010.53;4968351;28;20564;-70
2021/01/11 06:46:45;;;;;;;19.70;9.55;;;;;;;-6.08;81.80;97006.38;4959197;28;20582;-70
2021/01/11 06:49:28;;;;;;;24.38;10.18;;;;;;;-5.98;81.58;96998.00;4973613;28;20231;-70
2021/01/11 06:52:09;;;;;;;29.80;10.75;;;;;;;-5.89;81.46;97005.69;4958917;28;20211;-69
2021/01/11 06:54:38;;;;;;;23.55;10.30;;;;;;;-5.88;80.83;97001.47;4967773;28;20690;-70
2021/01/11 06:57:08;;;;;;;23.77;9.93;;;;;;;-5.87;80.91;97009.09;4971751;28;20233;-69
2021/01/11 06:59:37;;;;;;;28.45;10.95;;;;;;;-5.86;80.88;97010.78;4972477;28;20222;-70
2021/01/11 07:02:21;;;;;;;34.25;12.23;;;;;;;-5.98;80.82;97008.16;4973548;28;20222;-69
2021/01/11 07:04:49;;;;;;;25.60;9.32;;;;;;;-6.06;81.32;97012.31;4959484;28;20292;-69
2021/01/11 07:07:22;;;;;;;23.17;9.55;;;;;;;-6.10;81.91;97010.59;4973290;28;20190;-70
2021/01/11 07:09:56;;;;;;;28.55;10.73;;;;;;;-6.02;81.28;97014.03;4962138;28;20310;-69
2021/01/11 07:12:23;;;;;;;21.63;10.23;;;;;;;-6.01;81.95;97008.13;4968634;28;20210;-69
2021/01/11 07:14:58;;;;;;;21.73;9.82;;;;;;;-5.98;81.44;97013.22;4964032;28;20681;-70
2021/01/11 07:17:36;;;;;;;22.20;9.65;;;;;;;-5.86;81.01;97020.06;4959612;28;20721;-69
2021/01/11 07:20:05;;;;;;;24.70;10.70;;;;;;;-5.86;80.96;97013.31;4967443;28;20739;-70
2021/01/11 07:22:33;;;;;;;23.60;11.10;;;;;;;-5.89;80.66;97018.34;4969607;28;20198;-69
2021/01/11 07:25:07;;;;;;;23.55;10.45;;;;;;;-5.92;80.66;97018.34;4969524;28;20233;-69
2021/01/11 07:27:35;;;;;;;27.30;11.38;;;;;;;-5.91;80.82;97020.03;4973435;28;20938;-69
2021/01/11 07:30:03;;;;;;;19.45;8.85;;;;;;;-5.86;80.39;97020.06;4972527;28;20222;-72
2021/01/11 07:32:33;;;;;;;20.25;9.55;;;;;;;-5.97;81.35;97034.34;4973889;28;20210;-70
2021/01/11 07:35:00;;;;;;;21.25;9.52;;;;;;;-6.00;80.93;97026.69;4972861;28;20268;-70
2021/01/11 07:37:27;;;;;;;19.42;9.35;;;;;;;-5.95;81.17;97018.31;4970118;28;20201;-70
2021/01/11 07:39:55;;;;;;;20.33;9.38;;;;;;;-6.07;80.74;97013.16;4966799;28;20532;-70
2021/01/11 07:42:21;;;;;;;17.77;7.53;;;;;;;-5.95;80.95;97020.84;4970126;28;20637;-69
2021/01/11 07:44:48;;;;;;;19.50;8.57;;;;;;;-5.93;80.77;97020.84;4967329;28;20802;-70
2021/01/11 07:47:17;;;;;;;21.25;8.50;;;;;;;-5.92;80.57;97023.41;4972608;28;20205;-70
2021/01/11 07:49:49;;;;;;;19.48;9.10;;;;;;;-5.26;81.37;97016.19;4968353;28;20606;-70
2021/01/11 07:52:19;;;;;;;19.67;8.75;;;;;;;-3.89;79.80;97017.44;4972251;28;20664;-69
2021/01/11 07:54:55;;;;;;;18.30;9.85;;;;;;;-2.51;75.71;97027.31;4969221;28;20472;-69
2021/01/11 07:57:27;;;;;;;21.25;9.90;;;;;;;-1.76;71.12;97034.47;4970323;28;20656;-70
2021/01/11 08:00:06;;;;;;;19.58;9.60;;;;;;;-0.49;68.07;97047.66;4972636;28;20740;-71
2021/01/11 08:02:33;;;;;;;19.60;9.02;;;;;;;-0.11;64.51;97041.19;4973945;28;20202;-70
2021/01/11 08:05:00;;;;;;;22.10;11.10;;;;;;;1.06;62.76;97047.84;4965813;28;20272;-71
2021/01/11 08:07:30;;;;;;;22.30;11.15;;;;;;;1.42;58.45;97039.44;4968055;28;20234;-71
2021/01/11 08:09:58;;;;;;;26.48;14.00;;;;;;;1.45;57.29;97043.69;4962675;28;20226;-71
2021/01/11 08:12:27;;;;;;;35.95;17.75;;;;;;;0.95;56.81;97036.94;4971408;28;20186;-70
2021/01/11 08:15:02;;;;;;;50.22;23.83;;;;;;;1.12;57.76;97040.03;4975464;28;20218;-69
2021/01/11 08:17:32;;;;;;;48.75;21.48;;;;;;;1.63;58.43;97035.63;4968083;28;20871;-70
2021/01/11 08:19:59;;;;;;;27.85;14.10;;;;;;;2.59;57.50;97043.72;4972739;28;20231;-71
2021/01/11 08:22:36;;;;;;;29.70;12.32;;;;;;;3.82;55.63;97036.13;4969498;28;20889;-70
2021/01/11 08:25:05;;;;;;;25.55;14.57;;;;;;;4.77;51.74;97005.66;4973483;28;20239;-71
2021/01/11 08:27:36;;;;;;;25.15;14.38;;;;;;;4.54;50.13;96997.84;4966886;28;20725;-70
2021/01/11 08:30:07;;;;;;;29.58;15.52;;;;;;;5.41;48.74;96992.25;4974070;28;20637;-71
2021/01/11 08:32:35;;;;;;;34.10;17.60;;;;;;;5.53;49.11;97002.16;4966247;28;20203;-73
2021/01/11 08:35:08;;;;;;;30.92;16.05;;;;;;;6.29;47.42;97013.94;4971630;28;20622;-70
2021/01/11 08:37:35;;;;;;;26.30;15.10;;;;;;;7.12;47.45;97016.56;4973963;28;20574;-71
2021/01/11 08:40:05;;;;;;;26.53;15.50;;;;;;;7.14;45.55;97007.81;4973667;28;20464;-70
2021/01/11 08:42:33;;;;;;;32.70;16.90;;;;;;;7.69;44.33;97011.47;4970166;28;20484;-71
2021/01/11 08:45:26;;;;;;;28.80;15.87;;;;;;;8.34;43.30;97000.69;4974266;28;20886;-72
2021/01/11 08:48:00;;;;;;;32.17;16.10;;;;;;;7.93;43.16;97002.59;4970233;28;20532;-71
2021/01/11 08:50:29;;;;;;;34.73;16.87;;;;;;;8.09;44.46;97014.00;4967231;28;20967;-71
2021/01/11 08:52:56;;;;;;;31.27;18.70;;;;;;;8.76;44.10;97003.84;4970107;28;20457;-72
2021/01/11 08:55:23;;;;;;;39.60;20.47;;;;;;;9.10;41.59;96993.50;4973035;28;20842;-71
2021/01/11 08:58:05;;;;;;;34.97;20.13;;;;;;;8.18;42.79;96987.63;4970540;28;21010;-72
2021/01/11 09:00:32;;;;;;;43.73;21.27;;;;;;;8.64;43.45;96991.44;4974772;28;20829;-74
2021/01/11 09:02:59;;;;;;;27.73;15.50;;;;;;;9.25;42.96;97013.50;4976337;28;20485;-72
2021/01/11 09:05:27;;;;;;;25.47;13.97;;;;;;;8.58;44.69;97011.66;4968697;28;20950;-71
2021/01/11 09:07:55;;;;;;;21.03;11.30;;;;;;;9.49;43.98;97011.41;4966904;28;20882;-71
2021/01/11 09:10:30;;;;;;;19.40;12.10;;;;;;;8.84;43.46;97008.63;4980270;28;20464;-71
2021/01/11 09:13:17;;;;;;;27.90;14.80;;;;;;;9.04;43.35;97004.16;4978120;28;20464;-71
2021/01/11 09:15:45;;;;;;;35.70;13.53;;;;;;;9.13;42.38;97011.50;4968631;28;20987;-70
2021/01/11 09:18:14;;;;;;;30.53;12.80;;;;;;;7.88;45.06;97014.94;4962551;28;20988;-70
2021/01/11 09:20:46;;;;;;;19.03;11.30;;;;;;;8.71;44.68;97018.78;4972351;28;20947;-70
2021/01/11 09:23:14;;;;;;;28.83;17.47;;;;;;;9.13;43.53;97016.69;4974148;28;20485;-70
2021/01/11 09:25:41;;;;;;;19.37;12.77;;;;;;;10.26;43.28;97032.41;4969451;28;20475;-71
2021/01/11 09:28:09;;;;;;;21.63;12.60;;;;;;;10.70;41.60;97020.41;4969971;28;20991;-70
2021/01/11 09:30:40;;;;;;;23.70;13.30;;;;;;;10.41;41.32;97026.41;4968539;28;20477;-70
2021/01/11 09:33:08;;;;;;;22.60;12.00;;;;;;;10.91;40.53;97021.81;4974355;28;20456;-70
2021/01/11 09:35:34;;;;;;;20.33;11.17;;;;;;;10.61;41.98;97022.72;4969892;28;20582;-70
2021/01/11 09:38:02;;;;;;;18.63;12.00;;;;;;;10.63;42.34;97024.31;4967802;28;20855;-72
2021/01/11 09:40:53;;;;;;;21.20;11.60;;;;;;;10.84;41.37;97036.13;4972397;28;20547;-69
2021/01/11 09:43:30;;;;;;;16.30;11.13;;;;;;;11.18;40.69;97030.69;4964038;28;21005;-70
2021/01/11 09:45:59;;;;;;;17.07;9.60;;;;;;;9.81;42.06;97026.19;4964239;28;20500;-70
2021/01/11 09:48:27;;;;;;;22.80;11.80;;;;;;;8.41;45.38;97022.81;4963280;28;20686;-68
2021/01/11 09:50:56;;;;;;;19.80;10.10;;;;;;;8.54;45.61;97023.94;4969795;28;20469;-69
2021/01/11 09:53:23;;;;;;;15.37;8.57;;;;;;;8.49;45.67;97030.25;4972763;28;20805;-69
2021/01/11 09:55:50;;;;;;;17.90;8.40;;;;;;;8.80;45.11;97026.16;4965988;28;20509;-69
2021/01/11 09:58:18;;;;;;;19.30;9.50;;;;;;;8.75;45.95;97025.50;4955157;28;20988;-70
2021/01/11 10:00:45;;;;;;;16.38;8.90;;;;;;;8.61;45.68;97020.13;4955272;28;20477;-69
2021/01/11 10:03:16;;;;;;;15.03;8.77;;;;;;;8.58;45.49;97025.50;4956086;28;20249;-70
2021/01/11 10:05:42;;;;;;;15.90;8.05;;;;;;;8.28;46.08;97026.88;4957630;28;21034;-70
2021/01/11 10:08:10;;;;;;;15.10;8.25;;;;;;;8.35;46.15;97020.50;4970762;28;20225;-70
2021/01/11 10:10:37;;;;;;;17.90;8.65;;;;;;;8.49;46.29;97020.72;4969152;28;20755;-71
2021/01/11 10:13:04;;;;;;;18.15;9.35;;;;;;;8.92;45.27;97017.75;4971980;28;20237;-70
2021/01/11 10:15:31;;;;;;;16.73;7.63;;;;;;;8.54;45.35;97008.38;4964756;28;20356;-70
2021/01/11 10:17:59;;;;;;;13.07;6.93;;;;;;;7.97;46.38;97020.56;4967113;28;20538;-70
2021/01/11 10:20:26;;;;;;;17.40;8.57;;;;;;;8.08;46.88;97020.09;4970617;28;20751;-70
2021/01/11 10:22:56;;;;;;;13.40;7.68;;;;;;;8.08;46.66;97026.09;4971874;28;20198;-70
2021/01/11 10:25:23;;;;;;;16.50;7.95;;;;;;;7.44;47.56;97023.81;4965598;28;20233;-70
2021/01/11 10:27:52;;;;;;;17.80;7.63;;;;;;;7.60;47.21;97023.09;4971698;28;20237;-71
2021/01/11 10:30:20;;;;;;;16.73;8.57;;;;;;;6.95;47.85;97014.69;4967686;28;20269;-70
2021/01/11 10:32:47;;;;;;;13.50;7.32;;;;;;;6.58;49.38;97011.06;4960777;28;20252;-70
2021/01/11 10:35:14;;;;;;;17.45;8.75;;;;;;;6.66;50.05;97002.09;4962364;28;20261;-70
2021/01/11 10:37:42;;;;;;;15.82;8.57;;;;;;;6.92;49.42;96999.28;4970926;28;20649;-70
2021/01/11 10:40:12;;;;;;;15.88;8.45;;;;;;;6.82;49.92;96995.38;4973813;28;20226;-72
2021/01/11 10:42:39;;;;;;;12.63;7.93;;;;;;;6.67;49.72;96987.41;4967305;28;20233;-70
2021/01/11 10:45:10;;;;;;;18.23;8.68;;;;;;;6.40;50.91;96970.44;4964997;28;20597;-70
2021/01/11 10:47:36;;;;;;;13.68;7.55;;;;;;;6.84;50.17;96970.28;4955202;28;20230;-70
2021/01/11 10:50:04;;;;;;;14.10;7.30;;;;;;;6.60;50.04;96973.88;4958053;28;20240;-70
2021/01/11 10:52:31;;;;;;;14.05;7.35;;;;;;;6.66;50.63;96975.38;4959533;28;20230;-70
2021/01/11 10:54:58;;;;;;;16.90;7.80;;;;;;;6.70;50.79;96964.03;4964078;28;20560;-70
2021/01/11 10:57:25;;;;;;;12.02;6.68;;;;;;;6.97;50.25;96970.63;4969758;28;20237;-72
2021/01/11 10:59:52;;;;;;;13.68;7.45;;;;;;;7.20;48.79;96970.50;4966002;28;20246;-72
2021/01/11 11:02:19;;;;;;;13.60;6.22;;;;;;;6.65;49.08;96963.34;4966028;28;20584;-72
2021/01/11 11:04:46;;;;;;;13.32;6.70;;;;;;;5.89;51.29;96944.84;4974364;28;20614;-72
2021/01/11 11:07:13;;;;;;;10.60;5.40;;;;;;;6.36;50.52;96971.44;4967554;28;20206;-72
2021/01/11 11:09:41;;;;;;;11.35;6.38;;;;;;;6.86;49.78;96970.25;4969033;28;20325;-72
2021/01/11 11:12:08;;;;;;;9.27;5.38;;;;;;;7.35;48.24;96968.09;4973605;28;20202;-72
2021/01/11 11:14:35;;;;;;;11.23;6.60;;;;;;;7.23;48.45;96972.97;4967543;28;20621;-72
2021/01/11 11:17:13;;;;;;;11.98;6.60;;;;;;;7.38;47.23;96972.28;4970758;28;20695;-73
2021/01/11 11:19:43;;;;;;;10.75;6.47;;;;;;;7.18;47.97;96965.41;4970939;28;20229;-73
2021/01/11 11:22:10;;;;;;;10.10;5.05;;;;;;;6.89;47.79;96968.38;4973669;28;20267;-72
2021/01/11 11:24:37;;;;;;;11.20;5.80;;;;;;;6.64;48.38;96975.44;4968589;28;20217;-73
2021/01/11 11:27:05;;;;;;;11.55;6.63;;;;;;;6.53;49.87;96969.88;4971444;28;20304;-72
2021/01/11 11:29:39;;;;;;;10.57;6.35;;;;;;;6.29;49.83;96970.00;4974448;28;20681;-72
2021/01/11 11:32:06;;;;;;;13.02;7.85;;;;;;;6.24;50.10;96961.56;4979497;28;20603;-72
2021/01/11 11:34:34;;;;;;;11.32;5.90;;;;;;;6.67;49.83;96958.94;4972713;28;20658;-73
2021/01/11 11:37:01;;;;;;;15.00;7.05;;;;;;;6.70;49.82;96956.25;4967650;28;20321;-72